馬公航空站 - ATIS

METAR RCQC 011500Z 03026G36KT 9999 FEW008 BKN016 20/16 Q1017 RMK A3006=

站台狀態:Online
最後更新:2022-12-01 23:30:02